createdAt,value
2023-04-21T00:00:44.912Z,90.70
2023-04-21T00:03:12.763Z,90.70
2023-04-21T00:05:42.582Z,90.80
2023-04-21T00:08:11.747Z,90.80
2023-04-21T00:10:39.452Z,90.90
2023-04-21T00:13:07.210Z,90.80
2023-04-21T00:15:34.922Z,90.90
2023-04-21T00:18:03.688Z,91.00
2023-04-21T00:20:31.920Z,90.90
2023-04-21T00:23:00.534Z,91.00
2023-04-21T00:25:29.591Z,91.00
2023-04-21T00:27:57.327Z,91.00
2023-04-21T00:30:25.185Z,91.20
2023-04-21T00:32:52.953Z,91.10
2023-04-21T00:35:20.736Z,91.10
2023-04-21T00:37:50.067Z,91.10
2023-04-21T00:40:17.904Z,91.10
2023-04-21T00:42:46.951Z,91.20
2023-04-21T00:45:15.734Z,91.20
2023-04-21T00:47:44.062Z,91.20
2023-04-21T00:50:12.964Z,91.20
2023-04-21T00:52:41.892Z,91.20
2023-04-21T00:55:10.579Z,91.30
2023-04-21T00:57:38.666Z,91.30
2023-04-21T01:00:10.223Z,91.30
2023-04-21T01:02:39.999Z,91.30
2023-04-21T01:05:09.098Z,91.40
2023-04-21T01:07:37.067Z,91.30
2023-04-21T01:10:05.642Z,91.40
2023-04-21T01:12:33.456Z,91.40
2023-04-21T01:15:01.214Z,91.40
2023-04-21T01:17:31.204Z,91.50
2023-04-21T01:20:03.226Z,91.50
2023-04-21T01:22:33.121Z,91.50
2023-04-21T01:25:00.852Z,91.60
2023-04-21T01:27:28.570Z,91.60
2023-04-21T01:29:56.673Z,91.60
2023-04-21T01:32:26.344Z,91.60
2023-04-21T01:35:37.657Z,91.80
2023-04-21T01:38:06.726Z,91.70
2023-04-21T01:40:34.768Z,91.80
2023-04-21T01:43:03.828Z,91.80
2023-04-21T01:45:31.577Z,91.80
2023-04-21T01:47:59.369Z,91.90
2023-04-21T01:50:27.099Z,91.90
2023-04-21T01:52:54.762Z,92.20
2023-04-21T01:55:24.287Z,91.90
2023-04-21T01:57:51.961Z,91.90
2023-04-21T02:00:20.249Z,91.90
2023-04-21T02:02:48.039Z,92.00
2023-04-21T02:05:16.062Z,92.00
2023-04-21T02:07:43.771Z,92.00
2023-04-21T02:10:11.770Z,92.00
2023-04-21T02:12:40.839Z,91.90
2023-04-21T02:15:09.545Z,92.00
2023-04-21T02:17:37.413Z,92.00
2023-04-21T02:20:06.845Z,92.00
2023-04-21T02:22:34.544Z,92.00
2023-04-21T02:25:02.215Z,92.00
2023-04-21T02:27:30.160Z,92.00
2023-04-21T02:29:59.171Z,92.00
2023-04-21T02:32:27.054Z,92.00
2023-04-21T02:34:54.998Z,92.00
2023-04-21T02:37:22.726Z,92.10
2023-04-21T02:39:50.520Z,92.10
2023-04-21T02:42:18.194Z,92.10
2023-04-21T02:44:45.958Z,92.20
2023-04-21T02:47:16.313Z,92.20
2023-04-21T02:49:44.562Z,92.20
2023-04-21T02:52:12.261Z,92.20
2023-04-21T02:54:39.960Z,92.20
2023-04-21T02:57:07.673Z,92.20
2023-04-21T02:59:35.361Z,92.20
2023-04-21T03:02:03.329Z,92.20
2023-04-21T03:04:32.899Z,92.30
2023-04-21T03:07:00.660Z,92.30
2023-04-21T03:09:28.328Z,92.30
2023-04-21T03:11:56.006Z,92.30
2023-04-21T03:14:23.694Z,92.30
2023-04-21T03:16:51.495Z,92.30
2023-04-21T03:19:19.531Z,92.40
2023-04-21T03:21:48.829Z,92.40
2023-04-21T03:24:16.480Z,92.40
2023-04-21T03:26:44.175Z,92.40
2023-04-21T03:29:11.861Z,92.40
2023-04-21T03:31:39.597Z,92.40
2023-04-21T03:34:07.309Z,92.50
2023-04-21T03:36:35.013Z,92.50
2023-04-21T03:39:13.147Z,92.60
2023-04-21T03:41:48.522Z,92.50
2023-04-21T03:44:16.249Z,92.50
2023-04-21T03:46:44.044Z,92.50
2023-04-21T03:49:11.791Z,92.50
2023-04-21T03:51:39.475Z,92.50
2023-04-21T03:54:09.067Z,92.60
2023-04-21T03:56:36.748Z,92.60
2023-04-21T03:59:04.468Z,92.60
2023-04-21T04:01:32.154Z,92.60
2023-04-21T04:04:00.045Z,92.60
2023-04-21T04:06:28.332Z,92.60
2023-04-21T04:08:56.114Z,92.60
2023-04-21T04:11:25.178Z,92.60
2023-04-21T04:13:52.867Z,92.60
2023-04-21T04:16:20.627Z,92.50
2023-04-21T04:18:48.388Z,92.50
2023-04-21T04:21:16.184Z,92.50
2023-04-21T04:23:44.289Z,92.50
2023-04-21T04:26:12.004Z,92.60
2023-04-21T04:28:41.124Z,92.70
2023-04-21T04:31:08.826Z,92.60
2023-04-21T04:33:36.512Z,92.60
2023-04-21T04:36:04.784Z,92.60
2023-04-21T04:38:34.636Z,92.60
2023-04-21T04:41:02.506Z,92.60
2023-04-21T04:43:33.337Z,92.60
2023-04-21T04:46:02.388Z,92.60
2023-04-21T04:48:30.117Z,92.60
2023-04-21T04:50:57.835Z,92.60
2023-04-21T04:53:25.725Z,92.60
2023-04-21T04:55:53.535Z,92.60
2023-04-21T04:58:22.100Z,92.70
2023-04-21T05:00:49.769Z,92.70
2023-04-21T05:03:18.999Z,92.70
2023-04-21T05:05:46.987Z,92.70
2023-04-21T05:08:17.812Z,92.80
2023-04-21T05:10:45.933Z,92.70
2023-04-21T05:13:13.604Z,92.70
2023-04-21T05:15:41.290Z,92.60
2023-04-21T05:18:09.072Z,92.60
2023-04-21T05:20:41.497Z,92.70
2023-04-21T05:23:09.183Z,92.70
2023-04-21T05:25:38.456Z,92.80
2023-04-21T05:28:06.165Z,92.80
2023-04-21T05:30:33.866Z,92.80
2023-04-21T05:33:01.626Z,92.80
2023-04-21T05:35:31.765Z,92.90
2023-04-21T05:38:00.798Z,92.90
2023-04-21T05:40:28.547Z,92.90
2023-04-21T05:42:56.209Z,92.90
2023-04-21T05:45:23.940Z,92.90
2023-04-21T05:47:51.742Z,92.90
2023-04-21T05:50:19.453Z,92.90
2023-04-21T05:52:47.124Z,92.90
2023-04-21T05:55:16.276Z,92.90
2023-04-21T05:57:44.027Z,93.10
2023-04-21T06:00:12.995Z,93.10
2023-04-21T06:02:40.837Z,93.20
2023-04-21T06:05:09.073Z,93.10
2023-04-21T06:07:38.116Z,93.10
2023-04-21T06:10:07.085Z,93.20
2023-04-21T06:12:36.110Z,93.20
2023-04-21T06:15:04.010Z,93.20
2023-04-21T06:17:31.698Z,93.20
2023-04-21T06:19:59.609Z,93.20
2023-04-21T06:22:28.176Z,93.30
2023-04-21T06:24:55.892Z,93.30
2023-04-21T06:27:23.596Z,93.30
2023-04-21T06:29:55.455Z,93.40
2023-04-21T06:32:23.291Z,93.40
2023-04-21T06:34:51.036Z,93.40
2023-04-21T06:37:18.973Z,93.40
2023-04-21T06:39:46.760Z,93.40
2023-04-21T06:42:14.451Z,93.40
2023-04-21T06:44:42.122Z,93.50
2023-04-21T06:47:11.323Z,93.50
2023-04-21T06:49:39.107Z,93.60
2023-04-21T06:52:06.860Z,93.60
2023-04-21T06:54:34.609Z,93.60
2023-04-21T06:57:02.336Z,93.70
2023-04-21T06:59:30.237Z,93.70
2023-04-21T07:01:57.960Z,93.70
2023-04-21T07:04:29.882Z,93.70
2023-04-21T07:06:58.218Z,93.70
2023-04-21T07:09:28.394Z,93.70
2023-04-21T07:11:56.229Z,93.60
2023-04-21T07:14:23.922Z,93.60
2023-04-21T07:16:51.660Z,93.60
2023-04-21T07:19:19.642Z,93.60
2023-04-21T07:21:48.893Z,93.60
2023-04-21T07:24:16.579Z,93.60
2023-04-21T07:26:44.473Z,93.40
2023-04-21T07:29:12.139Z,93.70
2023-04-21T07:31:39.950Z,93.70
2023-04-21T07:34:07.747Z,93.70
2023-04-21T07:36:35.437Z,93.70
2023-04-21T07:39:04.540Z,93.70
2023-04-21T07:41:32.408Z,93.70
2023-04-21T07:44:00.272Z,93.70
2023-04-21T07:46:30.411Z,93.70
2023-04-21T07:48:58.287Z,93.70
2023-04-21T07:51:28.240Z,93.70
2023-04-21T07:53:55.965Z,93.70
2023-04-21T07:56:25.087Z,93.70
2023-04-21T07:58:52.768Z,93.70
2023-04-21T08:01:20.954Z,93.70
2023-04-21T08:03:48.973Z,93.70
2023-04-21T08:06:17.172Z,93.70
2023-04-21T08:08:45.295Z,93.70
2023-04-21T08:11:13.046Z,93.80
2023-04-21T08:13:42.074Z,93.80
2023-04-21T08:16:09.927Z,93.80
2023-04-21T08:18:37.685Z,93.80
2023-04-21T08:21:05.711Z,93.70
2023-04-21T08:23:33.495Z,93.70
2023-04-21T08:26:02.779Z,93.80
2023-04-21T08:28:30.497Z,93.80
2023-04-21T08:31:00.347Z,93.30
2023-04-21T08:33:28.145Z,93.30
2023-04-21T08:38:29.402Z,93.50
2023-04-21T08:40:59.636Z,93.40
2023-04-21T08:43:27.530Z,93.40
2023-04-21T08:45:56.059Z,93.40
2023-04-21T08:48:26.375Z,93.40
2023-04-21T08:50:55.053Z,93.50
2023-04-21T08:53:22.780Z,93.50
2023-04-21T08:56:07.677Z,93.50
2023-04-21T08:58:38.501Z,93.50
2023-04-21T09:01:06.425Z,93.60
2023-04-21T09:03:35.687Z,93.60
2023-04-21T09:06:06.490Z,93.60
2023-04-21T09:08:35.543Z,93.60
2023-04-21T09:11:03.272Z,93.70
2023-04-21T09:13:32.379Z,93.80
2023-04-21T09:16:00.947Z,93.70
2023-04-21T09:18:34.994Z,93.80
2023-04-21T09:21:11.857Z,93.80
2023-04-21T09:23:43.631Z,93.90
2023-04-21T09:26:12.027Z,93.90
2023-04-21T09:28:42.751Z,93.90
2023-04-21T09:31:19.584Z,93.90
2023-04-21T09:33:57.822Z,93.80
2023-04-21T09:36:34.401Z,93.80
2023-04-21T09:39:29.079Z,93.80
2023-04-21T09:41:51.590Z,93.80
2023-04-21T09:44:19.709Z,93.80
2023-04-21T09:46:50.419Z,93.80
2023-04-21T09:49:19.464Z,93.80
2023-04-21T09:52:17.110Z,93.80
2023-04-21T09:54:43.426Z,93.80
2023-04-21T09:57:14.383Z,93.80
2023-04-21T09:59:47.281Z,93.90
2023-04-21T10:02:16.059Z,93.90
2023-04-21T10:04:45.095Z,94.00
2023-04-21T10:07:14.325Z,94.00
2023-04-21T10:09:46.999Z,94.00
2023-04-21T10:12:16.166Z,94.00
2023-04-21T10:14:43.888Z,93.90
2023-04-21T10:17:12.003Z,93.90
2023-04-21T10:19:50.116Z,93.80
2023-04-21T10:22:28.594Z,93.80
2023-04-21T10:24:57.181Z,93.70
2023-04-21T10:27:35.606Z,93.80
2023-04-21T10:30:18.527Z,93.80
2023-04-21T10:32:46.337Z,93.70
2023-04-21T10:35:16.841Z,93.80
2023-04-21T10:37:49.873Z,93.70
2023-04-21T10:43:07.175Z,93.70
2023-04-21T10:45:34.884Z,93.90
2023-04-21T10:48:03.901Z,93.80
2023-04-21T10:50:32.659Z,93.70
2023-04-21T10:53:10.969Z,93.70
2023-04-21T10:55:42.067Z,93.60
2023-04-21T10:58:10.981Z,93.60
2023-04-21T11:00:39.555Z,93.60
2023-04-21T11:03:08.698Z,93.60
2023-04-21T11:05:38.635Z,93.50
2023-04-21T11:08:13.853Z,93.60
2023-04-21T11:10:49.624Z,93.60
2023-04-21T11:13:17.578Z,93.60
2023-04-21T11:16:04.378Z,93.60
2023-04-21T11:18:39.750Z,93.50
2023-04-21T11:21:12.273Z,93.50
2023-04-21T11:23:50.034Z,93.50
2023-04-21T11:26:17.959Z,93.60
2023-04-21T11:28:49.731Z,93.60
2023-04-21T11:31:17.569Z,93.50
2023-04-21T11:33:45.428Z,93.50
2023-04-21T11:36:13.316Z,93.50
2023-04-21T11:38:42.012Z,93.50
2023-04-21T11:41:11.570Z,93.40
2023-04-21T11:43:39.510Z,93.40
2023-04-21T11:46:17.614Z,93.50
2023-04-21T11:48:46.795Z,93.40
2023-04-21T11:51:21.380Z,93.40
2023-04-21T11:53:50.096Z,93.40
2023-04-21T11:56:23.238Z,93.40
2023-04-21T11:58:52.571Z,93.40
2023-04-21T12:01:21.432Z,93.40
2023-04-21T12:03:53.719Z,93.40
2023-04-21T12:06:23.053Z,93.30
2023-04-21T12:08:57.017Z,93.30
2023-04-21T12:11:27.897Z,93.30
2023-04-21T12:13:57.835Z,93.20
2023-04-21T12:16:28.026Z,93.20
2023-04-21T12:18:56.442Z,93.10
2023-04-21T12:21:28.399Z,93.00
2023-04-21T12:23:56.122Z,92.90
2023-04-21T12:26:24.701Z,92.90
2023-04-21T12:28:54.039Z,92.90
2023-04-21T12:31:21.775Z,92.80
2023-04-21T12:33:49.535Z,92.70
2023-04-21T12:36:17.494Z,92.80
2023-04-21T12:38:45.455Z,92.80
2023-04-21T12:41:13.145Z,92.90
2023-04-21T12:43:40.935Z,92.70
2023-04-21T12:46:10.061Z,92.60
2023-04-21T12:48:37.902Z,92.50
2023-04-21T12:51:05.677Z,92.40
2023-04-21T12:53:33.393Z,92.40
2023-04-21T12:56:05.188Z,92.60
2023-04-21T12:58:33.288Z,92.50
2023-04-21T13:01:01.143Z,92.50
2023-04-21T13:03:30.541Z,92.60
2023-04-21T13:05:58.673Z,92.70
2023-04-21T13:08:26.684Z,92.70
2023-04-21T13:10:55.472Z,92.40
2023-04-21T13:13:23.293Z,92.30
2023-04-21T13:15:51.179Z,92.20
2023-04-21T13:18:18.960Z,92.10
2023-04-21T13:20:47.978Z,92.00
2023-04-21T13:23:16.046Z,92.10
2023-04-21T13:25:44.717Z,92.20
2023-04-21T13:28:13.810Z,92.20
2023-04-21T13:30:41.633Z,92.30
2023-04-21T13:33:09.434Z,92.30
2023-04-21T13:35:37.203Z,92.20
2023-04-21T13:38:06.473Z,92.10
2023-04-21T13:40:34.198Z,92.00
2023-04-21T13:43:01.927Z,91.90
2023-04-21T13:45:29.657Z,91.90
2023-04-21T13:47:58.440Z,91.90
2023-04-21T13:50:26.435Z,91.80
2023-04-21T13:52:54.130Z,91.80
2023-04-21T13:55:23.478Z,91.80
2023-04-21T13:57:51.220Z,91.80
2023-04-21T14:00:19.446Z,91.70
2023-04-21T14:02:47.401Z,91.60
2023-04-21T14:05:15.352Z,91.50
2023-04-21T14:07:44.260Z,91.30
2023-04-21T14:10:12.843Z,91.20
2023-04-21T14:12:41.883Z,91.20
2023-04-21T14:15:11.416Z,91.10
2023-04-21T14:17:39.255Z,91.10
2023-04-21T14:20:09.263Z,91.00
2023-04-21T14:22:37.314Z,90.90
2023-04-21T14:25:05.601Z,90.90
2023-04-21T14:27:34.197Z,90.80
2023-04-21T14:30:03.399Z,90.80
2023-04-21T14:32:31.122Z,90.60
2023-04-21T14:34:59.268Z,90.50
2023-04-21T14:37:28.173Z,90.50
2023-04-21T15:25:54.296Z,89.30
2023-04-21T15:28:21.989Z,88.20
2023-04-21T15:30:50.296Z,88.90
2023-04-21T15:33:17.985Z,89.20
2023-04-21T15:35:48.340Z,89.60
2023-04-21T15:38:16.068Z,89.40
2023-04-21T15:40:59.121Z,89.10
2023-04-21T15:43:28.236Z,88.80
2023-04-21T15:45:56.029Z,88.10
2023-04-21T15:48:23.986Z,88.40
2023-04-21T15:50:53.126Z,88.30
2023-04-21T15:53:21.485Z,88.20
2023-04-21T15:55:49.223Z,88.10
2023-04-21T15:58:17.076Z,87.60
2023-04-21T16:00:45.817Z,87.40
2023-04-21T16:03:14.032Z,87.30
2023-04-21T16:05:42.135Z,86.70
2023-04-21T16:08:11.768Z,86.60
2023-04-21T16:10:39.612Z,86.40
2023-04-21T16:13:07.473Z,86.60
2023-04-21T16:15:35.527Z,86.60
2023-04-21T16:18:06.266Z,86.70
2023-04-21T16:20:34.131Z,86.70
2023-04-21T16:23:02.219Z,86.70
2023-04-21T16:25:31.418Z,86.70
2023-04-21T16:27:59.129Z,86.90
2023-04-21T16:30:26.850Z,86.80
2023-04-21T16:32:54.587Z,86.70
2023-04-21T16:35:22.342Z,86.50
2023-04-21T16:37:50.492Z,86.50
2023-04-21T16:40:18.243Z,86.40
2023-04-21T16:42:47.412Z,86.60
2023-04-21T16:45:15.153Z,86.50
2023-04-21T16:47:43.003Z,86.50
2023-04-21T16:50:11.175Z,86.50
2023-04-21T16:52:38.979Z,86.40
2023-04-21T16:55:07.264Z,87.20
2023-04-21T16:57:35.106Z,86.70
2023-04-21T17:00:06.882Z,86.90
2023-04-21T17:02:34.989Z,87.00
2023-04-21T17:05:03.856Z,86.70
2023-04-21T17:07:32.379Z,87.00
2023-04-21T17:10:00.299Z,87.00
2023-04-21T17:12:28.102Z,86.90
2023-04-21T17:14:55.954Z,87.00
2023-04-21T17:17:25.153Z,87.30
2023-04-21T17:19:54.005Z,87.20
2023-04-21T17:22:21.718Z,87.20
2023-04-21T17:24:53.570Z,87.30
2023-04-21T17:27:21.969Z,87.30
2023-04-21T17:29:49.716Z,87.40
2023-04-21T17:32:17.574Z,87.50
2023-04-21T17:34:46.619Z,87.50
2023-04-21T17:37:14.634Z,87.50
2023-04-21T17:39:42.316Z,87.40
2023-04-21T17:42:10.046Z,87.50
2023-04-21T17:44:39.763Z,87.60
2023-04-21T17:47:08.157Z,87.60
2023-04-21T17:49:36.430Z,87.60
2023-04-21T17:52:06.378Z,87.50
2023-04-21T17:54:34.354Z,87.60
2023-04-21T17:57:02.491Z,87.60
2023-04-21T17:59:30.197Z,87.70
2023-04-21T18:01:58.796Z,87.70
2023-04-21T18:04:27.758Z,87.70
2023-04-21T18:06:55.616Z,87.70
2023-04-21T18:09:25.318Z,87.70
2023-04-21T18:11:53.268Z,87.80
2023-04-21T18:14:21.484Z,87.70
2023-04-21T18:16:49.161Z,87.80
2023-04-21T18:19:18.249Z,87.80
2023-04-21T18:21:46.250Z,87.90
2023-04-21T18:24:14.032Z,87.90
2023-04-21T18:26:43.568Z,88.00
2023-04-21T18:29:11.264Z,88.00
2023-04-21T18:31:39.336Z,88.10
2023-04-21T18:34:08.536Z,88.20
2023-04-21T18:36:37.792Z,88.10
2023-04-21T18:39:06.414Z,88.20
2023-04-21T18:41:34.208Z,88.20
2023-04-21T18:44:03.315Z,88.20
2023-04-21T18:46:31.025Z,88.30
2023-04-21T18:48:58.912Z,88.20
2023-04-21T18:51:30.884Z,88.30
2023-04-21T18:53:58.667Z,88.30
2023-04-21T18:56:26.482Z,88.40
2023-04-21T18:58:54.497Z,88.40
2023-04-21T19:01:23.538Z,88.40
2023-04-21T19:03:51.509Z,88.50
2023-04-21T19:06:19.490Z,88.50
2023-04-21T19:08:47.215Z,88.60
2023-04-21T19:11:15.799Z,88.60
2023-04-21T19:13:43.589Z,88.70
2023-04-21T19:16:12.352Z,88.80
2023-04-21T19:18:41.612Z,88.90
2023-04-21T19:21:12.710Z,88.90
2023-04-21T19:23:41.172Z,89.00
2023-04-21T19:26:09.828Z,89.00
2023-04-21T19:28:37.588Z,89.00
2023-04-21T19:31:05.339Z,88.50
2023-04-21T19:33:33.053Z,88.80
2023-04-21T19:36:03.856Z,89.20
2023-04-21T19:38:31.825Z,89.30
2023-04-21T19:40:59.552Z,89.30
2023-04-21T19:43:27.335Z,89.50
2023-04-21T19:45:55.169Z,89.70
2023-04-21T19:48:22.979Z,89.80
2023-04-21T19:50:50.936Z,90.00
2023-04-21T19:53:19.965Z,90.10
2023-04-21T19:55:51.835Z,90.10
2023-04-21T19:58:38.328Z,90.20
2023-04-21T20:01:07.816Z,90.30
2023-04-21T20:03:35.807Z,90.40
2023-04-21T20:06:04.744Z,90.40
2023-04-21T20:08:33.809Z,90.50
2023-04-21T20:11:01.845Z,90.60
2023-04-21T20:13:29.630Z,90.60
2023-04-21T20:15:57.944Z,90.60
2023-04-21T20:18:25.952Z,90.60
2023-04-21T20:20:53.711Z,90.70
2023-04-21T20:23:21.650Z,90.70
2023-04-21T20:25:50.839Z,90.80
2023-04-21T20:28:18.569Z,90.80
2023-04-21T20:30:46.409Z,90.80
2023-04-21T20:33:14.178Z,90.80
2023-04-21T20:35:43.700Z,90.80
2023-04-21T20:38:11.460Z,90.90
2023-04-21T20:40:39.224Z,90.90
2023-04-21T20:43:09.966Z,91.00
2023-04-21T20:45:37.871Z,91.00
2023-04-21T20:48:05.875Z,91.00
2023-04-21T20:50:33.608Z,91.00
2023-04-21T20:53:02.020Z,91.10
2023-04-21T20:55:29.720Z,91.10
2023-04-21T20:57:57.410Z,91.10
2023-04-21T21:00:26.502Z,91.20
2023-04-21T21:02:54.358Z,91.20
2023-04-21T21:05:22.403Z,91.20
2023-04-21T21:10:18.665Z,91.30
2023-04-21T21:12:46.422Z,91.40
2023-04-21T21:15:14.876Z,91.40
2023-04-21T21:17:43.899Z,91.70
2023-04-21T21:20:12.957Z,91.40
2023-04-21T21:22:40.624Z,91.40
2023-04-21T21:25:09.014Z,91.50
2023-04-21T21:27:36.819Z,91.50
2023-04-21T21:30:05.631Z,91.50
2023-04-21T21:32:33.381Z,91.50
2023-04-21T21:35:02.409Z,91.60
2023-04-21T21:37:30.485Z,91.60
